createdAt,value
2023-02-07T17:24:18.963Z,66.30
2023-02-07T17:34:24.813Z,67.52
2023-02-07T17:44:33.075Z,68.28
2023-02-07T17:55:38.463Z,67.74
2023-02-07T18:07:02.631Z,66.98
2023-02-07T18:17:06.646Z,66.80
2023-02-07T18:27:10.625Z,66.15
2023-02-07T18:37:17.585Z,65.95
2023-02-07T18:47:21.524Z,66.06
2023-02-07T18:57:25.906Z,65.61
2023-02-07T19:07:29.750Z,65.59
2023-02-07T19:17:33.737Z,65.31
2023-02-07T19:27:37.469Z,65.78
2023-02-07T19:37:41.493Z,65.60
2023-02-07T19:47:45.183Z,65.29
2023-02-07T19:57:49.279Z,65.21
2023-02-07T20:07:54.152Z,65.30
2023-02-07T20:17:59.334Z,65.64
2023-02-07T20:28:03.527Z,65.55
2023-02-07T20:38:10.075Z,65.46
2023-02-07T20:48:15.628Z,65.47
2023-02-07T20:58:19.621Z,65.49
2023-02-07T21:08:23.685Z,65.60
2023-02-07T21:18:28.570Z,65.66
2023-02-07T21:28:33.403Z,64.98
2023-02-07T21:38:39.540Z,65.19
2023-02-07T21:48:43.218Z,65.13
2023-02-07T21:58:48.251Z,65.33
2023-02-07T22:08:56.583Z,64.58
2023-02-07T22:19:02.511Z,64.47
2023-02-07T22:29:07.501Z,64.82
2023-02-07T22:39:13.145Z,65.59
2023-02-07T22:49:16.972Z,65.87
2023-02-07T22:59:20.822Z,65.35
2023-02-07T23:09:24.505Z,65.86
2023-02-07T23:19:28.198Z,65.73
2023-02-07T23:29:31.858Z,66.13
2023-02-07T23:39:35.665Z,65.68
2023-02-07T23:49:39.406Z,65.46
2023-02-07T23:59:43.175Z,65.12
